createdAt,value
2019-02-18T00:01:59.928Z,69.73
2019-02-18T00:04:31.436Z,67.00
2019-02-18T00:07:13.719Z,78.27
2019-02-18T00:09:36.894Z,91.00
2019-02-18T00:12:09.070Z,90.43
2019-02-18T00:14:40.898Z,91.43
2019-02-18T00:17:12.670Z,87.57
2019-02-18T00:19:44.563Z,98.80
2019-02-18T00:22:16.592Z,104.50
2019-02-18T00:24:48.245Z,98.77
2019-02-18T00:27:19.690Z,98.33
2019-02-18T00:29:51.593Z,105.93
2019-02-18T00:32:23.516Z,96.40
2019-02-18T00:34:54.903Z,88.97
2019-02-18T00:37:26.264Z,82.10
2019-02-18T00:39:57.903Z,77.27
2019-02-18T00:42:29.301Z,72.20
2019-02-18T00:45:00.788Z,79.90
2019-02-18T00:47:32.060Z,82.23
2019-02-18T00:50:03.612Z,77.40
2019-02-18T00:52:36.527Z,69.67
2019-02-18T00:55:08.129Z,70.33
2019-02-18T00:57:39.651Z,72.57
2019-02-18T01:00:13.683Z,62.87
2019-02-18T01:02:45.510Z,59.13
2019-02-18T01:05:17.007Z,57.40
2019-02-18T01:07:48.824Z,60.83
2019-02-18T01:10:20.545Z,51.17
2019-02-18T01:12:52.687Z,54.63
2019-02-18T01:15:24.259Z,56.07
2019-02-18T01:17:55.719Z,50.47
2019-02-18T01:20:27.385Z,52.40
2019-02-18T01:22:59.452Z,49.70
2019-02-18T01:25:31.910Z,52.60
2019-02-18T01:28:03.420Z,55.33
2019-02-18T01:30:35.419Z,51.03
2019-02-18T01:33:07.220Z,43.27
2019-02-18T01:35:38.787Z,41.93
2019-02-18T01:38:10.789Z,38.73
2019-02-18T01:40:42.543Z,42.30
2019-02-18T01:43:15.228Z,48.27
2019-02-18T01:45:46.883Z,48.17
2019-02-18T01:48:18.243Z,42.47
2019-02-18T01:50:51.369Z,42.43
2019-02-18T01:53:23.332Z,44.43
2019-02-18T01:55:54.689Z,41.20
2019-02-18T01:58:26.171Z,43.23
2019-02-18T02:00:57.559Z,37.40
2019-02-18T02:03:29.682Z,39.50
2019-02-18T02:06:01.869Z,41.27
2019-02-18T02:08:33.184Z,34.70
2019-02-18T02:11:04.628Z,34.03
2019-02-18T02:13:36.974Z,30.10
2019-02-18T02:16:11.128Z,33.57
2019-02-18T02:18:42.631Z,35.23
2019-02-18T02:21:14.485Z,37.40
2019-02-18T02:23:45.977Z,37.93
2019-02-18T02:26:17.557Z,34.93
2019-02-18T02:28:49.165Z,40.33
2019-02-18T02:31:20.814Z,38.90
2019-02-18T02:33:53.547Z,40.57
2019-02-18T02:36:24.883Z,36.40
2019-02-18T02:38:56.419Z,40.97
2019-02-18T02:41:28.308Z,32.60
2019-02-18T02:43:59.720Z,34.40
2019-02-18T02:46:31.088Z,36.47
2019-02-18T02:49:03.466Z,38.07
2019-02-18T02:51:34.736Z,40.30
2019-02-18T02:54:06.180Z,37.60
2019-02-18T02:56:37.880Z,45.33
2019-02-18T02:59:09.388Z,34.97
2019-02-18T03:01:46.174Z,38.33
2019-02-18T03:04:17.565Z,32.43
2019-02-18T03:06:49.045Z,35.40
2019-02-18T03:09:20.625Z,40.00
2019-02-18T03:11:52.691Z,38.37
2019-02-18T03:14:24.096Z,39.67
2019-02-18T03:16:55.440Z,40.03
2019-02-18T03:19:26.869Z,35.87
2019-02-18T03:21:58.126Z,39.50
2019-02-18T03:24:29.493Z,38.87
2019-02-18T03:27:01.169Z,41.43
2019-02-18T03:30:01.942Z,39.90
2019-02-18T03:32:41.709Z,35.63
2019-02-18T03:35:13.120Z,41.87
2019-02-18T03:37:44.574Z,40.83
2019-02-18T03:40:16.029Z,42.03
2019-02-18T03:42:47.876Z,39.27
2019-02-18T03:45:19.547Z,39.43
2019-02-18T03:47:51.518Z,40.13
2019-02-18T03:50:23.162Z,37.40
2019-02-18T03:52:54.908Z,37.70
2019-02-18T03:55:26.397Z,37.07
2019-02-18T03:57:57.864Z,35.87
2019-02-18T04:00:29.310Z,39.43
2019-02-18T04:03:01.225Z,37.43
2019-02-18T04:05:33.910Z,37.30
2019-02-18T04:08:05.382Z,39.00
2019-02-18T04:10:36.958Z,34.37
2019-02-18T04:13:09.381Z,43.93
2019-02-18T04:15:41.096Z,127.07
2019-02-18T04:18:12.693Z,41.50
2019-02-18T04:20:44.304Z,41.57
2019-02-18T04:23:17.196Z,40.07
2019-02-18T04:25:48.745Z,42.73
2019-02-18T04:28:20.469Z,45.07
2019-02-18T04:30:52.327Z,297.57
2019-02-18T04:33:23.999Z,62.77
2019-02-18T04:35:55.446Z,215.83
2019-02-18T04:38:26.887Z,76.00
2019-02-18T04:40:58.375Z,67.67
2019-02-18T04:43:29.900Z,54.70
2019-02-18T04:46:01.260Z,51.50
2019-02-18T04:48:32.728Z,50.93
2019-02-18T04:51:04.380Z,75.73
2019-02-18T04:53:36.268Z,54.90
2019-02-18T04:56:07.829Z,51.43
2019-02-18T04:58:39.879Z,65.97
2019-02-18T05:01:11.917Z,93.10
2019-02-18T05:03:43.525Z,70.33
2019-02-18T05:06:15.062Z,88.57
2019-02-18T05:08:47.038Z,138.17
2019-02-18T05:11:18.490Z,74.20
2019-02-18T05:13:50.514Z,87.87
2019-02-18T05:16:22.150Z,71.13
2019-02-18T05:18:53.904Z,87.43
2019-02-18T05:21:26.061Z,113.93
2019-02-18T05:23:57.442Z,88.87
2019-02-18T05:26:29.009Z,96.00
2019-02-18T05:29:00.540Z,80.07
2019-02-18T05:31:32.000Z,77.07
2019-02-18T05:34:03.742Z,79.80
2019-02-18T05:36:36.794Z,84.23
2019-02-18T05:39:17.550Z,79.20
2019-02-18T05:41:42.706Z,102.97
2019-02-18T05:44:14.297Z,92.77
2019-02-18T05:46:46.023Z,82.30
2019-02-18T05:49:17.687Z,84.57
2019-02-18T05:51:49.331Z,89.20
2019-02-18T05:54:21.110Z,100.30
2019-02-18T05:56:53.913Z,65.93
2019-02-18T05:59:25.669Z,67.17
2019-02-18T06:01:57.110Z,81.20
2019-02-18T06:04:28.870Z,65.43
2019-02-18T06:07:00.337Z,59.03
2019-02-18T06:09:31.876Z,63.40
2019-02-18T06:12:03.452Z,53.60
2019-02-18T06:14:35.767Z,61.63
2019-02-18T06:17:07.273Z,47.27
2019-02-18T06:19:38.720Z,42.33
2019-02-18T06:22:10.925Z,42.23
2019-02-18T06:24:42.830Z,39.80
2019-02-18T06:27:14.415Z,34.33
2019-02-18T06:29:46.309Z,36.23
2019-02-18T06:32:18.471Z,35.33
2019-02-18T06:34:52.431Z,31.47
2019-02-18T06:37:23.969Z,28.60
2019-02-18T06:39:55.479Z,27.97
2019-02-18T06:42:27.209Z,27.27
2019-02-18T06:45:23.268Z,34.30
2019-02-18T06:47:54.912Z,35.83
2019-02-18T06:50:26.302Z,32.60
2019-02-18T06:52:57.762Z,40.70
2019-02-18T06:55:29.276Z,41.43
2019-02-18T06:58:31.876Z,42.47
2019-02-18T07:01:17.977Z,44.47
2019-02-18T07:04:24.151Z,42.27
2019-02-18T07:07:01.583Z,48.27
2019-02-18T07:09:51.188Z,45.97
2019-02-18T07:12:28.093Z,43.13
2019-02-18T07:15:02.347Z,45.77
2019-02-18T07:17:35.026Z,46.57
2019-02-18T07:20:07.351Z,42.67
2019-02-18T07:22:39.556Z,47.20
2019-02-18T07:25:11.964Z,44.77
2019-02-18T07:27:43.386Z,45.80
2019-02-18T07:30:16.203Z,44.33
2019-02-18T07:32:48.437Z,41.47
2019-02-18T07:35:19.891Z,42.10
2019-02-18T07:37:51.661Z,40.83
2019-02-18T07:40:23.405Z,39.17
2019-02-18T07:42:56.271Z,39.60
2019-02-18T07:45:27.967Z,33.83
2019-02-18T07:47:59.609Z,30.37
2019-02-18T07:50:31.288Z,25.73
2019-02-18T07:53:03.844Z,26.53
2019-02-18T07:55:35.191Z,25.43
2019-02-18T07:58:06.707Z,22.33
2019-02-18T08:00:39.516Z,25.07
2019-02-18T08:03:11.371Z,26.60
2019-02-18T08:05:43.446Z,24.77
2019-02-18T08:08:14.915Z,28.90
2019-02-18T08:10:46.492Z,26.37
2019-02-18T08:13:18.272Z,24.37
2019-02-18T08:15:50.193Z,25.67
2019-02-18T08:18:21.603Z,26.20
2019-02-18T08:20:53.691Z,26.17
2019-02-18T08:23:30.347Z,25.20
2019-02-18T08:26:01.805Z,24.87
2019-02-18T08:28:33.515Z,28.50
2019-02-18T08:31:05.603Z,29.13
2019-02-18T08:33:37.191Z,25.43
2019-02-18T08:36:08.720Z,27.53
2019-02-18T08:38:40.017Z,25.93
2019-02-18T08:41:12.240Z,29.80
2019-02-18T08:43:43.908Z,28.67
2019-02-18T08:46:15.416Z,32.20
2019-02-18T08:48:46.900Z,30.00
2019-02-18T08:51:18.541Z,28.33
2019-02-18T08:53:50.217Z,30.83
2019-02-18T08:56:21.501Z,31.20
2019-02-18T08:58:53.130Z,33.17
2019-02-18T09:01:24.977Z,30.73
2019-02-18T09:03:56.505Z,31.63
2019-02-18T09:06:28.017Z,31.10
2019-02-18T09:08:59.649Z,31.53
2019-02-18T09:11:31.569Z,31.33
2019-02-18T09:14:03.031Z,29.83
2019-02-18T09:16:34.721Z,31.37
2019-02-18T09:19:06.273Z,31.40
2019-02-18T09:21:37.632Z,35.77
2019-02-18T09:24:16.452Z,34.83
2019-02-18T09:26:48.259Z,31.37
2019-02-18T09:29:19.780Z,32.87
2019-02-18T09:31:51.854Z,27.73
2019-02-18T09:34:23.241Z,29.90
2019-02-18T09:36:56.172Z,31.20
2019-02-18T09:39:31.129Z,30.73
2019-02-18T09:42:06.243Z,31.73
2019-02-18T09:44:37.573Z,29.63
2019-02-18T09:47:09.466Z,28.90
2019-02-18T09:49:41.111Z,28.90
2019-02-18T09:52:12.883Z,26.67
2019-02-18T09:54:44.505Z,27.43
2019-02-18T09:57:15.975Z,26.17
2019-02-18T09:59:47.669Z,32.90
2019-02-18T10:02:19.286Z,27.53
2019-02-18T10:04:52.800Z,29.30
2019-02-18T10:07:25.185Z,26.20
2019-02-18T10:09:56.536Z,26.60
2019-02-18T10:12:29.259Z,28.97
2019-02-18T10:15:00.659Z,29.23
2019-02-18T10:17:31.952Z,28.77
2019-02-18T10:20:03.544Z,30.03
2019-02-18T10:22:34.932Z,28.87
2019-02-18T10:25:07.309Z,28.33
2019-02-18T10:27:38.794Z,27.27
2019-02-18T10:30:10.515Z,30.70
2019-02-18T10:32:47.068Z,26.80
2019-02-18T10:35:18.668Z,35.97
2019-02-18T10:37:55.280Z,34.37
2019-02-18T10:40:23.845Z,30.20
2019-02-18T10:42:57.400Z,29.80
2019-02-18T10:45:28.912Z,31.37
2019-02-18T10:48:00.225Z,34.30
2019-02-18T10:50:31.776Z,34.50
2019-02-18T10:53:09.239Z,34.30
2019-02-18T10:55:41.017Z,35.93
2019-02-18T10:58:12.549Z,37.40
2019-02-18T11:00:44.044Z,43.90
2019-02-18T11:03:15.919Z,33.63
2019-02-18T11:05:47.768Z,36.40
2019-02-18T11:08:19.556Z,38.27
2019-02-18T11:10:51.670Z,38.90
2019-02-18T11:13:23.346Z,35.70
2019-02-18T11:15:54.816Z,38.33
2019-02-18T11:18:27.306Z,35.90
2019-02-18T11:20:58.781Z,40.50
2019-02-18T11:23:31.089Z,44.23
2019-02-18T11:26:02.459Z,36.17
2019-02-18T11:28:33.908Z,43.47
2019-02-18T11:31:05.431Z,43.47
2019-02-18T11:33:36.892Z,34.93
2019-02-18T11:36:08.725Z,36.70
2019-02-18T11:38:40.283Z,37.13
2019-02-18T11:41:27.374Z,37.07
2019-02-18T11:43:53.920Z,43.27
2019-02-18T11:46:25.303Z,37.70
2019-02-18T11:48:57.116Z,41.27
2019-02-18T11:51:28.645Z,37.13
2019-02-18T11:54:00.074Z,38.30
2019-02-18T11:56:31.818Z,37.87
2019-02-18T11:59:03.526Z,39.53
2019-02-18T12:01:35.408Z,35.93
2019-02-18T12:04:06.846Z,37.47
2019-02-18T12:06:38.646Z,39.27
2019-02-18T12:09:10.597Z,41.43
2019-02-18T12:11:42.323Z,47.37
2019-02-18T12:14:14.206Z,41.70
2019-02-18T12:16:45.619Z,44.80
2019-02-18T12:19:17.305Z,44.23
2019-02-18T12:21:49.282Z,42.43
2019-02-18T12:24:20.615Z,46.53
2019-02-18T12:26:52.306Z,45.37
2019-02-18T12:29:26.538Z,48.33
2019-02-18T12:32:05.729Z,46.03
2019-02-18T12:34:38.121Z,48.27
2019-02-18T12:37:09.648Z,46.83
2019-02-18T12:39:41.347Z,52.50
2019-02-18T12:42:13.241Z,49.40
2019-02-18T12:44:44.910Z,48.43
2019-02-18T12:47:16.470Z,44.53
2019-02-18T12:49:48.336Z,46.63
2019-02-18T12:52:20.894Z,45.57
2019-02-18T12:54:52.908Z,40.00
2019-02-18T12:57:24.647Z,43.17
2019-02-18T12:59:56.494Z,37.33
2019-02-18T13:02:28.091Z,36.00
2019-02-18T13:05:00.540Z,29.97
2019-02-18T13:07:33.104Z,33.13
2019-02-18T13:10:05.542Z,29.00
2019-02-18T13:12:37.539Z,33.97
2019-02-18T13:15:11.256Z,32.40
2019-02-18T13:17:43.658Z,30.70
2019-02-18T13:20:14.918Z,32.50
2019-02-18T13:22:46.800Z,31.50
2019-02-18T13:25:19.956Z,30.13
2019-02-18T13:27:52.126Z,32.67
2019-02-18T13:30:23.683Z,32.40
2019-02-18T13:32:55.436Z,32.23
2019-02-18T13:35:27.400Z,34.43
2019-02-18T13:37:59.226Z,32.80
2019-02-18T13:40:30.777Z,37.50
2019-02-18T13:43:02.343Z,38.07
2019-02-18T13:45:34.279Z,37.87
2019-02-18T13:48:06.201Z,45.00
2019-02-18T13:50:38.295Z,39.70
2019-02-18T13:53:11.434Z,36.27
2019-02-18T13:55:43.197Z,35.77
2019-02-18T13:58:15.257Z,39.50
2019-02-18T14:00:47.081Z,37.97
2019-02-18T14:03:19.999Z,37.47
2019-02-18T14:05:51.716Z,43.93
2019-02-18T14:08:23.497Z,37.87
2019-02-18T14:10:55.025Z,45.63
2019-02-18T14:13:26.767Z,43.20
2019-02-18T14:15:58.476Z,45.53
2019-02-18T14:18:29.790Z,42.30
2019-02-18T14:21:01.129Z,43.80
2019-02-18T14:23:32.630Z,47.87
2019-02-18T14:26:04.169Z,44.53
2019-02-18T14:28:35.707Z,48.60
2019-02-18T14:31:07.740Z,48.37
2019-02-18T14:33:39.776Z,48.73
2019-02-18T14:36:11.639Z,48.67
2019-02-18T14:38:43.278Z,48.20
2019-02-18T14:41:20.097Z,49.03
2019-02-18T14:43:51.797Z,44.07
2019-02-18T14:46:23.484Z,52.33
2019-02-18T14:48:55.736Z,48.57
2019-02-18T14:51:27.165Z,51.53
2019-02-18T14:53:59.329Z,52.43
2019-02-18T14:56:30.915Z,47.60
2019-02-18T14:59:02.557Z,45.87
2019-02-18T15:01:34.529Z,49.17
2019-02-18T15:04:06.139Z,46.67
2019-02-18T15:06:39.475Z,58.30
2019-02-18T15:09:11.547Z,52.30
2019-02-18T15:11:54.320Z,48.57
2019-02-18T15:14:25.544Z,57.13
2019-02-18T15:16:57.364Z,66.73
2019-02-18T15:19:29.108Z,52.27
2019-02-18T15:22:00.653Z,51.97
2019-02-18T15:24:32.355Z,54.73
2019-02-18T15:27:03.849Z,59.57
2019-02-18T15:29:36.188Z,56.87
2019-02-18T15:32:08.012Z,55.17
2019-02-18T15:34:39.903Z,54.83
2019-02-18T15:37:11.868Z,59.57
2019-02-18T15:39:44.320Z,55.07
2019-02-18T15:42:21.183Z,61.90
2019-02-18T15:44:55.194Z,55.30
2019-02-18T15:47:26.711Z,59.30
2019-02-18T15:49:58.133Z,59.10
2019-02-18T15:52:30.053Z,58.33
2019-02-18T15:55:01.496Z,61.53
2019-02-18T15:57:32.872Z,57.23
2019-02-18T16:00:04.702Z,62.93
2019-02-18T16:02:42.766Z,61.90
2019-02-18T16:05:14.308Z,57.13
2019-02-18T16:07:45.643Z,62.57
2019-02-18T16:10:17.405Z,59.10
2019-02-18T16:12:51.083Z,59.63
2019-02-18T16:15:22.762Z,68.47
2019-02-18T16:17:54.315Z,57.23
2019-02-18T16:20:25.804Z,65.67
2019-02-18T16:22:57.505Z,61.97
2019-02-18T16:25:29.705Z,59.63
2019-02-18T16:28:01.186Z,59.83
2019-02-18T16:30:32.814Z,60.87
2019-02-18T16:33:11.282Z,60.50
2019-02-18T16:35:43.133Z,62.63
2019-02-18T16:38:14.621Z,60.20
2019-02-18T16:40:45.946Z,60.23
2019-02-18T16:43:17.560Z,62.77
2019-02-18T16:45:49.011Z,67.87
2019-02-18T16:48:20.949Z,64.40
2019-02-18T16:50:52.909Z,67.00
2019-02-18T16:53:24.650Z,59.70
2019-02-18T16:55:56.212Z,65.50
2019-02-18T16:58:27.837Z,70.97
2019-02-18T17:00:59.948Z,66.10
2019-02-18T17:03:31.413Z,68.13
2019-02-18T17:06:02.785Z,73.97
2019-02-18T17:08:34.995Z,63.87
2019-02-18T17:11:06.458Z,69.67
2019-02-18T17:13:38.327Z,75.37
2019-02-18T17:16:10.406Z,71.03
2019-02-18T17:18:42.017Z,83.00
2019-02-18T17:21:13.735Z,80.67
2019-02-18T17:23:45.577Z,75.07
2019-02-18T17:26:17.217Z,77.33
2019-02-18T17:28:48.951Z,79.13
2019-02-18T17:31:20.598Z,85.37
2019-02-18T17:33:52.679Z,81.13
2019-02-18T17:36:23.901Z,81.10
2019-02-18T17:38:55.448Z,81.60
2019-02-18T17:41:32.102Z,85.27
2019-02-18T17:44:03.898Z,86.93
2019-02-18T17:46:36.571Z,95.23
2019-02-18T17:49:08.074Z,92.40
2019-02-18T17:51:39.912Z,92.80
2019-02-18T17:54:11.767Z,92.33
2019-02-18T17:56:44.211Z,88.03
2019-02-18T17:59:15.858Z,91.03
2019-02-18T18:01:47.146Z,97.20
2019-02-18T18:04:18.916Z,101.23
2019-02-18T18:06:50.725Z,104.27
2019-02-18T18:09:22.453Z,105.03
2019-02-18T18:11:54.130Z,114.67
2019-02-18T18:14:25.957Z,104.57
2019-02-18T18:16:57.487Z,106.73
2019-02-18T18:19:29.628Z,110.27
2019-02-18T18:22:01.078Z,109.43
2019-02-18T18:24:33.023Z,107.10
2019-02-18T18:27:04.994Z,104.53
2019-02-18T18:29:36.535Z,116.70
2019-02-18T18:32:08.930Z,110.70
2019-02-18T18:34:40.593Z,112.23
2019-02-18T18:37:12.510Z,112.40
2019-02-18T18:39:44.175Z,119.30
2019-02-18T18:42:21.721Z,118.60
2019-02-18T18:44:53.637Z,114.93
2019-02-18T18:47:25.211Z,116.50
2019-02-18T18:49:56.747Z,115.77
2019-02-18T18:52:28.399Z,119.40
2019-02-18T18:54:59.951Z,125.93
2019-02-18T18:57:31.694Z,124.00
2019-02-18T19:00:04.949Z,117.73
2019-02-18T19:02:38.076Z,120.83
2019-02-18T19:05:09.720Z,123.17
2019-02-18T19:07:41.897Z,123.53
2019-02-18T19:10:13.376Z,128.87
2019-02-18T19:12:45.259Z,132.03
2019-02-18T19:15:16.730Z,127.43
2019-02-18T19:17:48.479Z,135.93
2019-02-18T19:20:20.254Z,124.23
2019-02-18T19:22:52.551Z,129.70
2019-02-18T19:25:24.074Z,118.03
2019-02-18T19:27:55.654Z,122.47
2019-02-18T19:30:28.196Z,130.43
2019-02-18T19:33:00.000Z,125.00
2019-02-18T19:35:31.750Z,158.87
2019-02-18T19:38:03.358Z,154.43
2019-02-18T19:40:34.786Z,140.60
2019-02-18T19:43:07.123Z,139.97
2019-02-18T19:45:38.707Z,145.57
2019-02-18T19:48:10.795Z,135.50
2019-02-18T19:50:42.250Z,140.00
2019-02-18T19:53:14.010Z,152.23
2019-02-18T19:55:45.729Z,152.33
2019-02-18T19:58:17.104Z,145.30
2019-02-18T20:00:49.929Z,141.00
2019-02-18T20:03:21.855Z,145.17
2019-02-18T20:05:53.997Z,151.53
2019-02-18T20:08:25.698Z,162.03
2019-02-18T20:10:56.885Z,169.07
2019-02-18T20:13:28.874Z,176.57
2019-02-18T20:16:00.411Z,169.93
2019-02-18T20:18:31.761Z,180.10
2019-02-18T20:21:03.292Z,187.20
2019-02-18T20:23:34.698Z,178.17
2019-02-18T20:26:05.998Z,166.07
2019-02-18T20:28:37.413Z,177.07
2019-02-18T20:31:09.355Z,174.13
2019-02-18T20:33:40.721Z,166.47
2019-02-18T20:36:12.889Z,159.43
2019-02-18T20:38:44.484Z,152.10
2019-02-18T20:41:15.898Z,163.53
2019-02-18T20:43:47.722Z,161.10
2019-02-18T20:46:19.746Z,162.93
2019-02-18T20:48:51.582Z,146.97
2019-02-18T20:51:23.445Z,150.30
2019-02-18T20:53:55.534Z,158.03
2019-02-18T20:56:27.513Z,171.47
2019-02-18T20:58:58.885Z,168.53
2019-02-18T21:01:35.676Z,163.03
2019-02-18T21:04:07.133Z,168.87
2019-02-18T21:06:38.698Z,170.83
2019-02-18T21:09:10.606Z,160.13
2019-02-18T21:11:42.237Z,152.93
2019-02-18T21:14:16.163Z,138.67
2019-02-18T21:16:46.977Z,143.73
2019-02-18T21:19:18.588Z,147.67
2019-02-18T21:21:51.685Z,157.77
2019-02-18T21:24:23.052Z,143.23
2019-02-18T21:26:54.474Z,144.53
2019-02-18T21:29:25.902Z,143.47
2019-02-18T21:32:00.888Z,135.40
2019-02-18T21:34:32.450Z,160.70
2019-02-18T21:37:03.842Z,151.67
2019-02-18T21:39:36.205Z,155.03
2019-02-18T21:42:09.453Z,150.97
2019-02-18T21:44:41.044Z,147.37
2019-02-18T21:47:12.803Z,175.40
2019-02-18T21:49:44.385Z,156.27
2019-02-18T21:52:16.167Z,154.77
2019-02-18T21:54:47.680Z,155.60
2019-02-18T21:57:19.951Z,160.43
2019-02-18T21:59:52.748Z,151.90
2019-02-18T22:02:24.316Z,158.77
2019-02-18T22:04:57.206Z,160.43
2019-02-18T22:07:28.805Z,183.07
2019-02-18T22:10:00.306Z,145.37
2019-02-18T22:12:31.724Z,132.33
2019-02-18T22:15:03.091Z,158.17
2019-02-18T22:17:34.844Z,160.70
2019-02-18T22:20:07.372Z,161.70
2019-02-18T22:22:39.698Z,172.23
2019-02-18T22:25:11.741Z,148.03
2019-02-18T22:27:43.325Z,181.50
2019-02-18T22:30:16.055Z,243.60
2019-02-18T22:32:48.065Z,250.97
2019-02-18T22:35:20.093Z,244.53
2019-02-18T22:37:51.764Z,245.10
2019-02-18T22:40:23.194Z,227.93
2019-02-18T22:42:54.624Z,237.33
2019-02-18T22:45:26.309Z,242.57
2019-02-18T22:47:59.198Z,217.47
2019-02-18T22:50:30.732Z,230.47
2019-02-18T22:53:02.779Z,220.70
2019-02-18T22:55:34.383Z,260.30
2019-02-18T22:58:05.689Z,214.13
2019-02-18T23:01:03.993Z,222.00
2019-02-18T23:03:35.463Z,206.33
2019-02-18T23:06:07.075Z,214.33
2019-02-18T23:08:38.619Z,206.93
2019-02-18T23:11:10.579Z,200.80
2019-02-18T23:13:42.087Z,229.27
2019-02-18T23:16:14.627Z,203.60
2019-02-18T23:18:46.179Z,191.57
2019-02-18T23:21:17.710Z,189.30
2019-02-18T23:23:49.321Z,202.33
2019-02-18T23:26:20.790Z,195.97
2019-02-18T23:28:52.786Z,195.00
2019-02-18T23:31:24.506Z,183.57
2019-02-18T23:33:55.875Z,206.67
2019-02-18T23:36:27.690Z,207.97
2019-02-18T23:38:59.326Z,192.20
2019-02-18T23:41:36.146Z,219.37
2019-02-18T23:44:07.907Z,191.77
2019-02-18T23:46:39.493Z,170.47
2019-02-18T23:49:11.370Z,173.60
2019-02-18T23:51:42.955Z,177.57
2019-02-18T23:54:14.453Z,186.63
2019-02-18T23:56:46.948Z,171.13
2019-02-18T23:59:18.577Z,173.37
